Bhera Weather



Bhera's Current Weather

Temprature 29.53o few clouds

few clouds

Rain: 0 %

Min Temprature29.53o
Max Temprature29.53o
Humidity32
Wind Speed6.07 m/h
Sun Rise06:13:45
Sun Set17:33:11
Current Time: 18-Oct-2019 15:49:39
Lat/Lon: 32.48, 72.91




Bhera's Geo Location



Bhera's Weather Forecast

Time Overall Temp Min Temp Max Temp Humidity Wind Speed Rain
18-Oct-2019 (Fri)
17:00:00 few clouds 27.360 27.360 29.530 32 6.07 m/h 0 %
20:00:00 light rain 21.990 21.990 23.620 51 2.78 m/h 231 %
23:00:00 light rain 23.660 23.660 24.748 45 3.39 m/h 38 %
19-Oct-2019 (Sat)
02:00:00 overcast clouds 23.130 23.130 23.668 36 2.48 m/h 0 %
05:00:00 scattered clouds 21.543 21.543 21.543 39 2.91 m/h 0 %
08:00:00 broken clouds 24.501 24.501 24.501 38 1.38 m/h 0 %
11:00:00 scattered clouds 30.340 30.340 30.340 22 0.33 m/h 0 %
14:00:00 overcast clouds 32.186 32.186 32.186 18 2.01 m/h 0 %
17:00:00 scattered clouds 29.782 29.782 29.782 22 2.71 m/h 0 %
20:00:00 light rain 25.948 25.948 25.948 31 3.36 m/h 6 %
23:00:00 clear sky 24.767 24.767 24.767 32 2.76 m/h 0 %
20-Oct-2019 (Sun)
02:00:00 clear sky 23.897 23.897 23.897 32 1.77 m/h 0 %
05:00:00 clear sky 23.164 23.164 23.164 33 2.16 m/h 0 %
08:00:00 scattered clouds 25.982 25.982 25.982 30 1.95 m/h 0 %
11:00:00 broken clouds 30.450 30.450 30.450 21 2.05 m/h 0 %
14:00:00 overcast clouds 32.232 32.232 32.232 18 1.86 m/h 0 %
17:00:00 broken clouds 29.758 29.758 29.758 22 0.93 m/h 0 %
20:00:00 few clouds 25.722 25.722 25.722 27 1.85 m/h 0 %
23:00:00 clear sky 24.597 24.597 24.597 29 1.43 m/h 0 %
21-Oct-2019 (Mon)
02:00:00 clear sky 23.910 23.910 23.910 30 1.28 m/h 0 %
05:00:00 clear sky 21.961 21.961 21.961 33 0.89 m/h 0 %
08:00:00 clear sky 24.719 24.719 24.719 29 0.88 m/h 0 %
11:00:00 clear sky 30.487 30.487 30.487 20 2 m/h 0 %
14:00:00 clear sky 32.505 32.505 32.505 17 3.47 m/h 0 %
17:00:00 scattered clouds 29.634 29.634 29.634 21 2.93 m/h 0 %
20:00:00 clear sky 26.374 26.374 26.374 25 2.23 m/h 0 %
23:00:00 clear sky 25.260 25.260 25.260 27 2.3 m/h 0 %
22-Oct-2019 (Tue)
02:00:00 clear sky 23.126 23.126 23.126 32 0.89 m/h 0 %
05:00:00 clear sky 22.039 22.039 22.039 34 1.2 m/h 0 %
08:00:00 clear sky 25.432 25.432 25.432 29 0.21 m/h 0 %
11:00:00 clear sky 30.689 30.689 30.689 20 1.96 m/h 0 %
14:00:00 clear sky 32.649 32.649 32.649 16 3.45 m/h 0 %
17:00:00 scattered clouds 29.562 29.562 29.562 18 1.57 m/h 0 %
20:00:00 overcast clouds 26.650 26.650 26.650 22 2.65 m/h 0 %
23:00:00 broken clouds 24.519 24.519 24.519 27 1.65 m/h 0 %
23-Oct-2019 (Wed)
02:00:00 overcast clouds 23.436 23.436 23.436 31 1.85 m/h 0 %
05:00:00 broken clouds 22.337 22.337 22.337 33 1.12 m/h 0 %
08:00:00 clear sky 24.249 24.249 24.249 29 1.76 m/h 0 %
11:00:00 clear sky 29.955 29.955 29.955 18 3.24 m/h 0 %
14:00:00 scattered clouds 31.979 31.979 31.979 15 2.69 m/h 0 %


Bhera's Tourist Spots

Historical Places in Bhera

Famous Cities (61)